createdAt,value
2018-01-22T00:00:50.862Z,2.42
2018-01-22T00:01:50.779Z,2.32
2018-01-22T00:02:50.695Z,2.35
2018-01-22T00:03:50.611Z,2.34
2018-01-22T00:04:50.528Z,2.32
2018-01-22T00:05:50.445Z,2.37
2018-01-22T00:06:50.360Z,2.39
2018-01-22T00:07:50.278Z,2.35
2018-01-22T00:08:50.194Z,2.34
2018-01-22T00:09:50.112Z,2.20
2018-01-22T00:10:50.028Z,2.26
2018-01-22T00:11:49.945Z,2.19
2018-01-22T00:12:49.860Z,2.19
2018-01-22T00:13:49.778Z,2.06
2018-01-22T00:14:49.693Z,2.12
2018-01-22T00:15:49.609Z,2.12
2018-01-22T00:16:49.529Z,2.10
2018-01-22T00:17:49.442Z,2.05
2018-01-22T00:18:49.359Z,2.01
2018-01-22T00:19:49.275Z,2.10
2018-01-22T00:20:49.191Z,2.01
2018-01-22T00:21:49.109Z,2.03
2018-01-22T00:22:49.023Z,2.02
2018-01-22T00:23:48.944Z,2.05
2018-01-22T00:24:48.856Z,1.99
2018-01-22T00:25:48.774Z,2.05
2018-01-22T00:26:48.689Z,1.91
2018-01-22T00:27:48.606Z,2.01
2018-01-22T00:28:48.522Z,1.90
2018-01-22T00:29:48.438Z,1.87
2018-01-22T00:30:48.353Z,1.99
2018-01-22T00:31:48.270Z,1.87
2018-01-22T00:32:48.186Z,1.84
2018-01-22T00:33:48.102Z,1.91
2018-01-22T00:34:48.018Z,1.84
2018-01-22T00:35:47.934Z,1.82
2018-01-22T00:36:47.852Z,1.84
2018-01-22T00:37:47.767Z,1.90
2018-01-22T00:38:47.682Z,1.90
2018-01-22T00:39:47.599Z,1.84
2018-01-22T00:40:47.516Z,1.87
2018-01-22T00:41:47.430Z,1.86
2018-01-22T00:42:47.347Z,1.90
2018-01-22T00:43:47.264Z,1.91
2018-01-22T00:44:47.180Z,1.84
2018-01-22T00:45:47.099Z,1.90
2018-01-22T00:46:47.013Z,1.91
2018-01-22T00:47:46.927Z,1.80
2018-01-22T00:48:46.844Z,1.83
2018-01-22T00:49:46.759Z,1.79
2018-01-22T00:50:46.675Z,1.77
2018-01-22T00:51:46.592Z,1.77
2018-01-22T00:52:46.507Z,1.80
2018-01-22T00:53:46.424Z,1.86
2018-01-22T00:54:46.338Z,1.92
2018-01-22T00:55:46.253Z,1.76
2018-01-22T00:56:46.174Z,1.79
2018-01-22T00:57:46.087Z,1.87
2018-01-22T00:58:46.002Z,1.76
2018-01-22T00:59:45.918Z,1.74
2018-01-22T01:00:45.834Z,1.76
2018-01-22T01:01:45.749Z,1.80
2018-01-22T01:02:45.667Z,1.82
2018-01-22T01:03:45.582Z,1.90
2018-01-22T01:04:45.498Z,1.87
2018-01-22T01:05:45.414Z,1.82
2018-01-22T01:06:45.331Z,1.84
2018-01-22T01:07:45.246Z,1.92
2018-01-22T01:08:45.163Z,1.86
2018-01-22T01:09:45.080Z,1.87
2018-01-22T01:10:44.994Z,1.86
2018-01-22T01:11:44.910Z,1.91
2018-01-22T01:12:44.830Z,1.84
2018-01-22T01:13:44.751Z,1.92
2018-01-22T01:14:44.659Z,1.83
2018-01-22T01:15:44.575Z,1.86
2018-01-22T01:16:44.491Z,1.94
2018-01-22T01:17:44.408Z,1.95
2018-01-22T01:18:44.323Z,2.01
2018-01-22T01:19:44.238Z,1.98
2018-01-22T01:20:44.156Z,1.95
2018-01-22T01:21:44.072Z,1.80
2018-01-22T01:22:43.988Z,1.92
2018-01-22T01:23:43.905Z,1.92
2018-01-22T01:24:43.821Z,1.98
2018-01-22T01:25:43.738Z,2.01
2018-01-22T01:26:43.654Z,1.95
2018-01-22T01:27:43.569Z,2.09
2018-01-22T01:28:43.486Z,2.03
2018-01-22T01:29:43.404Z,2.02
2018-01-22T01:30:43.318Z,2.06
2018-01-22T01:31:43.233Z,1.99
2018-01-22T01:32:43.151Z,1.98
2018-01-22T01:33:43.067Z,1.87
2018-01-22T01:34:42.988Z,1.84
2018-01-22T01:35:42.900Z,1.98
2018-01-22T01:36:42.816Z,1.80
2018-01-22T01:37:42.732Z,1.80
2018-01-22T01:38:42.648Z,1.98
2018-01-22T01:39:42.565Z,1.91
2018-01-22T01:40:42.481Z,1.86
2018-01-22T01:41:42.399Z,1.92
2018-01-22T01:42:42.318Z,1.92
2018-01-22T01:43:42.229Z,1.92
2018-01-22T01:44:42.147Z,2.01
2018-01-22T01:45:42.062Z,2.01
2018-01-22T01:46:41.980Z,1.99
2018-01-22T01:47:41.894Z,1.99
2018-01-22T01:48:41.811Z,1.99
2018-01-22T01:49:41.728Z,2.01
2018-01-22T01:50:41.793Z,1.99
2018-01-22T01:51:41.559Z,1.95
2018-01-22T01:52:41.476Z,1.95
2018-01-22T01:53:41.392Z,1.98
2018-01-22T01:54:41.307Z,1.94
2018-01-22T01:55:41.224Z,1.98
2018-01-22T01:56:41.141Z,2.01
2018-01-22T01:57:41.057Z,1.94
2018-01-22T01:58:40.972Z,1.91
2018-01-22T01:59:40.889Z,1.98
2018-01-22T02:00:40.805Z,1.87
2018-01-22T02:01:40.722Z,1.84
2018-01-22T02:02:40.636Z,1.95
2018-01-22T02:03:40.553Z,1.91
2018-01-22T02:04:40.470Z,1.87
2018-01-22T02:05:40.386Z,1.92
2018-01-22T02:06:40.302Z,1.95
2018-01-22T02:07:40.219Z,2.02
2018-01-22T02:08:40.135Z,2.03
2018-01-22T02:09:40.052Z,2.01
2018-01-22T02:10:39.967Z,1.98
2018-01-22T02:11:39.882Z,1.91
2018-01-22T02:12:39.800Z,1.91
2018-01-22T02:13:39.717Z,1.80
2018-01-22T02:14:39.632Z,1.80
2018-01-22T02:15:39.556Z,1.87
2018-01-22T02:16:39.467Z,1.91
2018-01-22T02:17:39.381Z,1.87
2018-01-22T02:18:39.297Z,1.98
2018-01-22T02:19:39.214Z,2.01
2018-01-22T02:20:39.130Z,1.98
2018-01-22T02:21:39.046Z,1.94
2018-01-22T02:22:38.962Z,1.91
2018-01-22T02:23:38.878Z,1.83
2018-01-22T02:24:38.800Z,1.91
2018-01-22T02:25:38.711Z,1.90
2018-01-22T02:26:38.629Z,1.90
2018-01-22T02:27:38.544Z,1.90
2018-01-22T02:28:38.458Z,1.95
2018-01-22T02:29:38.376Z,2.02
2018-01-22T02:30:38.292Z,1.94
2018-01-22T02:31:38.259Z,1.99
2018-01-22T02:32:38.127Z,1.98
2018-01-22T02:33:38.042Z,2.03
2018-01-22T02:34:37.957Z,2.02
2018-01-22T02:35:37.874Z,2.03
2018-01-22T02:36:37.790Z,2.03
2018-01-22T02:37:37.707Z,2.06
2018-01-22T02:38:37.623Z,2.03
2018-01-22T02:39:37.540Z,1.90
2018-01-22T02:40:37.456Z,2.01
2018-01-22T02:41:37.372Z,1.98
2018-01-22T02:42:37.289Z,2.03
2018-01-22T02:43:37.205Z,1.98
2018-01-22T02:44:37.122Z,2.01
2018-01-22T02:45:37.038Z,1.95
2018-01-22T02:46:36.954Z,1.91
2018-01-22T02:47:36.870Z,1.94
2018-01-22T02:48:36.786Z,1.91
2018-01-22T02:49:36.704Z,1.90
2018-01-22T02:50:36.619Z,1.87
2018-01-22T02:51:36.535Z,1.94
2018-01-22T02:52:36.451Z,1.83
2018-01-22T02:53:36.368Z,1.86
2018-01-22T02:54:36.283Z,1.80
2018-01-22T02:55:36.200Z,1.92
2018-01-22T02:56:36.118Z,2.02
2018-01-22T02:57:36.032Z,1.87
2018-01-22T02:58:35.947Z,2.02
2018-01-22T02:59:35.864Z,2.05
2018-01-22T03:00:35.781Z,2.02
2018-01-22T03:01:35.696Z,1.99
2018-01-22T03:02:35.611Z,2.01
2018-01-22T03:03:35.527Z,2.06
2018-01-22T03:04:35.445Z,1.99
2018-01-22T03:05:35.360Z,2.12
2018-01-22T03:06:35.276Z,2.05
2018-01-22T03:07:35.191Z,2.03
2018-01-22T03:08:35.111Z,1.99
2018-01-22T03:09:35.025Z,2.06
2018-01-22T03:10:34.942Z,2.06
2018-01-22T03:11:34.856Z,2.10
2018-01-22T03:12:34.774Z,2.03
2018-01-22T03:13:34.688Z,2.01
2018-01-22T03:14:34.604Z,2.03
2018-01-22T03:15:34.521Z,2.03
2018-01-22T03:16:34.437Z,2.03
2018-01-22T03:17:34.353Z,2.02
2018-01-22T03:18:34.268Z,2.05
2018-01-22T03:19:34.185Z,2.05
2018-01-22T03:20:34.101Z,2.03
2018-01-22T03:21:34.017Z,2.06
2018-01-22T03:22:33.932Z,1.98
2018-01-22T03:23:33.848Z,2.10
2018-01-22T03:24:33.765Z,2.03
2018-01-22T03:25:33.681Z,2.05
2018-01-22T03:26:33.597Z,2.02
2018-01-22T03:27:33.511Z,2.01
2018-01-22T03:28:33.429Z,2.02
2018-01-22T03:29:33.345Z,2.02
2018-01-22T03:30:33.260Z,2.05
2018-01-22T03:31:33.178Z,2.03
2018-01-22T03:32:33.093Z,1.99
2018-01-22T03:33:33.011Z,2.16
2018-01-22T03:34:32.925Z,2.13
2018-01-22T03:35:32.844Z,2.13
2018-01-22T03:36:32.758Z,2.24
2018-01-22T03:37:32.674Z,2.23
2018-01-22T03:38:32.592Z,2.23
2018-01-22T03:39:32.505Z,2.13
2018-01-22T03:40:32.423Z,2.20
2018-01-22T03:41:32.339Z,2.13
2018-01-22T03:42:32.255Z,2.17
2018-01-22T03:43:32.172Z,2.05
2018-01-22T03:44:32.088Z,2.03
2018-01-22T03:45:32.005Z,2.10
2018-01-22T03:46:31.920Z,2.03
2018-01-22T03:47:31.837Z,2.09
2018-01-22T03:48:31.753Z,2.13
2018-01-22T03:49:31.669Z,2.13
2018-01-22T03:50:31.586Z,2.10
2018-01-22T03:51:31.503Z,2.05
2018-01-22T03:52:31.420Z,2.13
2018-01-22T03:53:31.335Z,2.13
2018-01-22T03:54:31.250Z,2.13
2018-01-22T03:55:31.167Z,2.24
2018-01-22T03:56:31.086Z,2.21
2018-01-22T03:57:31.000Z,2.21
2018-01-22T03:58:30.915Z,2.23
2018-01-22T03:59:30.833Z,2.24
2018-01-22T04:00:30.750Z,2.35
2018-01-22T04:01:30.666Z,2.31
2018-01-22T04:02:30.582Z,2.30
2018-01-22T04:03:30.499Z,2.30
2018-01-22T04:04:30.416Z,2.23
2018-01-22T04:05:30.332Z,2.24
2018-01-22T04:06:30.252Z,2.26
2018-01-22T04:07:30.165Z,2.24
2018-01-22T04:08:30.081Z,2.28
2018-01-22T04:09:29.998Z,2.31
2018-01-22T04:10:29.914Z,2.39
2018-01-22T04:11:29.830Z,2.34
2018-01-22T04:12:29.749Z,2.32
2018-01-22T04:13:29.664Z,2.38
2018-01-22T04:14:29.579Z,2.38
2018-01-22T04:15:29.497Z,2.32
2018-01-22T04:16:29.413Z,2.35
2018-01-22T04:17:29.330Z,2.35
2018-01-22T04:18:29.246Z,2.30
2018-01-22T04:19:29.163Z,2.31
2018-01-22T04:20:29.079Z,2.35
2018-01-22T04:21:28.996Z,2.34
2018-01-22T04:22:28.912Z,2.24
2018-01-22T04:23:28.828Z,2.35
2018-01-22T04:24:28.746Z,2.31
2018-01-22T04:25:28.661Z,2.34
2018-01-22T04:26:28.578Z,2.30
2018-01-22T04:27:28.493Z,2.34
2018-01-22T04:28:28.411Z,2.32
2018-01-22T04:29:28.328Z,2.37
2018-01-22T04:30:28.244Z,2.26
2018-01-22T04:31:28.159Z,2.26
2018-01-22T04:32:28.077Z,2.30
2018-01-22T04:33:27.994Z,2.30
2018-01-22T04:34:27.908Z,2.31
2018-01-22T04:35:27.826Z,2.37
2018-01-22T04:36:27.742Z,2.31
2018-01-22T04:37:27.660Z,2.21
2018-01-22T04:38:27.575Z,2.28
2018-01-22T04:39:27.492Z,2.34
2018-01-22T04:40:27.409Z,2.35
2018-01-22T04:41:27.325Z,2.32
2018-01-22T04:42:27.242Z,2.35
2018-01-22T04:43:27.158Z,2.31
2018-01-22T04:44:27.076Z,2.31
2018-01-22T04:45:26.992Z,2.32
2018-01-22T04:46:26.907Z,2.34
2018-01-22T04:47:26.824Z,2.37
2018-01-22T04:48:26.753Z,2.41
2018-01-22T04:49:26.658Z,2.34
2018-01-22T04:50:26.573Z,2.37
2018-01-22T04:51:26.489Z,2.21
2018-01-22T04:52:26.406Z,2.24
2018-01-22T04:53:26.323Z,2.23
2018-01-22T04:54:26.239Z,2.24
2018-01-22T04:55:26.155Z,2.26
2018-01-22T04:56:26.072Z,2.26
2018-01-22T04:57:25.989Z,2.23
2018-01-22T04:58:25.905Z,2.28
2018-01-22T04:59:25.821Z,2.37
2018-01-22T05:00:25.737Z,2.30
2018-01-22T05:01:25.655Z,2.38
2018-01-22T05:02:25.570Z,2.32
2018-01-22T05:03:25.486Z,2.31
2018-01-22T05:04:25.404Z,2.35
2018-01-22T05:05:25.320Z,2.38
2018-01-22T05:06:25.235Z,2.35
2018-01-22T05:07:25.152Z,2.39
2018-01-22T05:08:25.069Z,2.37
2018-01-22T05:09:24.985Z,2.44
2018-01-22T05:10:24.902Z,2.34
2018-01-22T05:11:24.818Z,2.38
2018-01-22T05:12:24.735Z,2.55
2018-01-22T05:13:24.651Z,2.42
2018-01-22T05:14:24.568Z,2.41
2018-01-22T05:15:24.484Z,2.35
2018-01-22T05:16:24.401Z,2.30
2018-01-22T05:17:24.336Z,2.34
2018-01-22T05:18:24.234Z,2.32
2018-01-22T05:19:24.151Z,2.39
2018-01-22T05:20:24.067Z,2.32
2018-01-22T05:21:23.985Z,2.39
2018-01-22T05:22:23.899Z,2.49
2018-01-22T05:23:23.820Z,2.41
2018-01-22T05:24:23.734Z,2.50
2018-01-22T05:25:23.651Z,2.31
2018-01-22T05:26:23.567Z,2.35
2018-01-22T05:27:23.485Z,2.38
2018-01-22T05:28:23.401Z,2.37
2018-01-22T05:29:23.373Z,2.42
2018-01-22T05:30:23.234Z,2.44
2018-01-22T05:31:23.149Z,2.44
2018-01-22T05:32:23.070Z,2.30
2018-01-22T05:33:22.984Z,2.35
2018-01-22T05:34:22.900Z,2.44
2018-01-22T05:35:22.816Z,2.41
2018-01-22T05:36:22.733Z,2.31
2018-01-22T05:37:22.649Z,2.42
2018-01-22T05:38:22.616Z,2.41
2018-01-22T05:39:22.483Z,2.37
2018-01-22T05:40:22.400Z,2.39
2018-01-22T05:41:22.317Z,2.34
2018-01-22T05:42:22.231Z,2.42
2018-01-22T05:43:22.149Z,2.35
2018-01-22T05:44:22.067Z,2.44
2018-01-22T05:45:21.988Z,2.41
2018-01-22T05:46:21.900Z,2.46
2018-01-22T05:47:21.815Z,2.39
2018-01-22T05:48:21.731Z,2.46
2018-01-22T05:49:21.649Z,2.38
2018-01-22T05:50:21.565Z,2.48
2018-01-22T05:51:21.481Z,2.41
2018-01-22T05:52:21.398Z,2.41
2018-01-22T05:53:21.314Z,2.41
2018-01-22T05:54:21.230Z,2.46
2018-01-22T05:55:21.147Z,2.42
2018-01-22T05:56:21.064Z,2.49
2018-01-22T05:57:20.981Z,2.46
2018-01-22T05:58:20.896Z,2.48
2018-01-22T05:59:20.814Z,2.46
2018-01-22T06:00:20.730Z,2.38
2018-01-22T06:01:20.647Z,2.41
2018-01-22T06:02:20.607Z,2.41
2018-01-22T06:03:20.480Z,2.53
2018-01-22T06:04:20.396Z,2.37
2018-01-22T06:05:20.313Z,2.49
2018-01-22T06:06:20.233Z,2.37
2018-01-22T06:07:20.146Z,2.37
2018-01-22T06:08:20.064Z,2.41
2018-01-22T06:09:19.979Z,2.46
2018-01-22T06:10:19.894Z,2.41
2018-01-22T06:11:19.812Z,2.46
2018-01-22T06:12:19.729Z,2.44
2018-01-22T06:13:19.646Z,2.49
2018-01-22T06:14:19.561Z,2.41
2018-01-22T06:15:19.478Z,2.44
2018-01-22T06:16:19.395Z,2.46
2018-01-22T06:17:19.314Z,2.44
2018-01-22T06:18:19.227Z,2.48
2018-01-22T06:19:19.144Z,2.44
2018-01-22T06:20:19.061Z,2.52
2018-01-22T06:21:18.978Z,2.46
2018-01-22T06:22:18.894Z,2.42
2018-01-22T06:23:18.813Z,2.41
2018-01-22T06:24:18.727Z,2.39
2018-01-22T06:25:18.644Z,2.46
2018-01-22T06:26:18.560Z,2.49
2018-01-22T06:27:18.477Z,2.48
2018-01-22T06:28:18.394Z,2.49
2018-01-22T06:29:18.311Z,2.48
2018-01-22T06:30:18.226Z,2.48
2018-01-22T06:31:18.144Z,2.44
2018-01-22T06:32:18.060Z,2.48
2018-01-22T06:33:17.976Z,2.42
2018-01-22T06:34:17.892Z,2.48
2018-01-22T06:35:17.809Z,2.42
2018-01-22T06:36:17.725Z,2.50
2018-01-22T06:37:17.643Z,2.56
2018-01-22T06:38:17.558Z,2.57
2018-01-22T06:39:17.475Z,2.56
2018-01-22T06:40:17.392Z,2.57
2018-01-22T06:41:17.308Z,2.50
2018-01-22T06:42:17.226Z,2.57
2018-01-22T06:43:17.141Z,2.48
2018-01-22T06:44:17.059Z,2.55
2018-01-22T06:45:16.974Z,2.55
2018-01-22T06:46:16.891Z,2.59
2018-01-22T06:47:16.808Z,2.59
2018-01-22T06:48:16.724Z,2.52
2018-01-22T06:49:16.642Z,2.67
2018-01-22T06:50:16.557Z,2.68
2018-01-22T06:51:16.474Z,2.60
2018-01-22T06:52:16.416Z,2.52
2018-01-22T06:53:16.308Z,2.63
2018-01-22T06:54:16.224Z,2.60
2018-01-22T06:55:16.143Z,2.68
2018-01-22T06:56:16.058Z,2.68
2018-01-22T06:57:15.975Z,2.71
2018-01-22T06:58:15.891Z,2.67
2018-01-22T06:59:15.808Z,2.68
2018-01-22T07:00:15.725Z,2.67
2018-01-22T07:01:15.642Z,2.71
2018-01-22T07:02:15.558Z,2.70
2018-01-22T07:03:15.475Z,2.71
2018-01-22T07:04:15.392Z,2.70
2018-01-22T07:05:15.309Z,2.68
2018-01-22T07:06:15.225Z,2.73
2018-01-22T07:07:15.143Z,2.71
2018-01-22T07:08:15.061Z,2.71
2018-01-22T07:09:14.978Z,2.70
2018-01-22T07:10:14.893Z,2.70
2018-01-22T07:11:14.813Z,2.80
2018-01-22T07:12:14.727Z,2.80
2018-01-22T07:13:14.645Z,2.75
2018-01-22T07:14:14.562Z,2.85
2018-01-22T07:15:14.479Z,2.77
2018-01-22T07:16:14.397Z,2.77
2018-01-22T07:17:14.313Z,2.78
2018-01-22T07:18:14.231Z,2.80
2018-01-22T07:19:14.149Z,2.81
2018-01-22T07:20:14.065Z,2.85
2018-01-22T07:21:13.983Z,2.78
2018-01-22T07:22:13.900Z,2.91
2018-01-22T07:23:13.818Z,2.92
2018-01-22T07:24:13.736Z,2.89
2018-01-22T07:25:13.652Z,2.91
2018-01-22T07:26:13.569Z,2.88
2018-01-22T07:27:13.487Z,2.92
2018-01-22T07:28:13.404Z,2.84
2018-01-22T07:29:13.322Z,2.86
2018-01-22T07:30:13.244Z,2.88
2018-01-22T07:31:13.156Z,2.93
2018-01-22T07:32:13.074Z,2.89
2018-01-22T07:33:12.994Z,2.86
2018-01-22T07:34:12.909Z,2.86
2018-01-22T07:35:12.826Z,2.89
2018-01-22T07:36:12.744Z,2.91
2018-01-22T07:37:12.662Z,2.89
2018-01-22T07:38:12.579Z,2.91
2018-01-22T07:39:12.497Z,2.89
2018-01-22T07:40:12.414Z,3.01
2018-01-22T07:41:12.335Z,2.96
2018-01-22T07:42:12.250Z,2.98
2018-01-22T07:43:12.168Z,3.04
2018-01-22T07:44:12.087Z,2.92
2018-01-22T07:45:12.003Z,2.88
2018-01-22T07:46:11.920Z,2.88
2018-01-22T07:47:11.838Z,2.93
2018-01-22T07:48:11.756Z,3.01
2018-01-22T07:49:11.674Z,2.88
2018-01-22T07:50:11.591Z,3.01
2018-01-22T07:51:11.509Z,2.89
2018-01-22T07:52:11.428Z,2.81
2018-01-22T07:53:11.344Z,2.89
2018-01-22T07:54:11.262Z,2.84
2018-01-22T07:55:11.180Z,2.88
2018-01-22T07:56:11.098Z,2.86
2018-01-22T07:57:11.016Z,2.93
2018-01-22T07:58:10.933Z,2.92
2018-01-22T07:59:10.851Z,2.91
2018-01-22T08:00:10.772Z,2.84
2018-01-22T08:01:10.687Z,2.89
2018-01-22T08:02:10.610Z,2.89
2018-01-22T08:06:12.946Z,2.86
2018-01-22T08:07:12.865Z,2.96
2018-01-22T08:08:12.782Z,3.07
2018-01-22T08:09:12.700Z,3.04
2018-01-22T08:10:12.637Z,2.99
2018-01-22T08:11:12.535Z,2.95
2018-01-22T08:12:12.453Z,3.04
2018-01-22T08:13:12.370Z,2.98
2018-01-22T08:14:12.325Z,3.06
2018-01-22T08:15:12.207Z,3.06
2018-01-22T08:16:12.124Z,3.01
2018-01-22T08:17:12.044Z,2.99
2018-01-22T08:18:11.959Z,3.07
2018-01-22T08:19:11.877Z,2.96
2018-01-22T08:20:11.815Z,3.01
2018-01-22T08:21:11.712Z,3.07
2018-01-22T08:22:11.630Z,3.10
2018-01-22T08:23:11.549Z,3.14
2018-01-22T08:24:11.464Z,3.11
2018-01-22T08:25:11.383Z,3.11
2018-01-22T08:26:11.300Z,3.10
2018-01-22T08:27:11.220Z,3.09
2018-01-22T08:28:11.136Z,3.11
2018-01-22T08:29:11.054Z,3.10
2018-01-22T08:30:10.971Z,3.11
2018-01-22T08:31:10.889Z,3.17
2018-01-22T08:32:10.807Z,3.11
2018-01-22T08:33:10.725Z,3.14
2018-01-22T08:34:10.647Z,3.19
2018-01-22T08:35:10.560Z,3.29
2018-01-22T08:36:10.478Z,3.21
2018-01-22T08:37:10.395Z,3.24
2018-01-22T08:38:10.315Z,3.24
2018-01-22T08:39:10.232Z,3.27
2018-01-22T08:40:10.150Z,3.27
2018-01-22T08:41:10.068Z,3.27
2018-01-22T08:42:09.986Z,3.29
2018-01-22T08:43:09.904Z,3.32
2018-01-22T08:44:09.822Z,3.29
2018-01-22T08:45:09.740Z,3.32
2018-01-22T08:46:09.659Z,3.47
2018-01-22T08:47:09.577Z,3.41
2018-01-22T08:48:09.493Z,3.44
2018-01-22T08:49:09.416Z,3.46
2018-01-22T08:50:09.330Z,3.51
2018-01-22T08:51:09.249Z,3.54
2018-01-22T08:52:09.167Z,3.64
2018-01-22T08:53:09.106Z,3.56
2018-01-22T08:54:09.004Z,3.57
2018-01-22T08:55:08.923Z,3.56
2018-01-22T08:56:08.840Z,3.48
2018-01-22T08:57:08.758Z,3.53
2018-01-22T08:58:08.676Z,3.57
2018-01-22T08:59:08.595Z,3.54
2018-01-22T09:00:08.513Z,3.56
2018-01-22T09:01:08.431Z,3.50
2018-01-22T09:02:08.350Z,3.39
2018-01-22T09:03:08.267Z,3.51
2018-01-22T09:04:08.186Z,3.57
2018-01-22T09:05:08.104Z,3.66
2018-01-22T09:06:08.023Z,3.59
2018-01-22T09:07:07.941Z,3.59
2018-01-22T09:08:07.859Z,3.68
2018-01-22T09:09:07.777Z,3.71
2018-01-22T09:10:07.696Z,3.69
2018-01-22T09:11:07.614Z,3.83
2018-01-22T09:12:07.532Z,3.84
2018-01-22T09:13:07.450Z,3.84
2018-01-22T09:14:07.369Z,3.89
2018-01-22T09:15:07.288Z,3.93
2018-01-22T09:16:07.207Z,3.89
2018-01-22T09:17:07.127Z,3.86
2018-01-22T09:18:07.043Z,3.87
2018-01-22T09:19:06.962Z,3.92
2018-01-22T09:20:06.885Z,3.87
2018-01-22T09:21:06.799Z,3.92
2018-01-22T09:22:06.718Z,3.98
2018-01-22T09:23:06.636Z,3.97
2018-01-22T09:24:06.554Z,4.16
2018-01-22T09:25:06.473Z,3.98
2018-01-22T09:26:06.392Z,4.10
2018-01-22T09:27:06.311Z,4.01
2018-01-22T09:28:06.228Z,4.05
2018-01-22T09:29:06.148Z,4.01
2018-01-22T09:30:06.066Z,4.15
2018-01-22T09:31:05.985Z,4.02
2018-01-22T09:32:05.903Z,4.16
2018-01-22T09:33:05.822Z,4.16
2018-01-22T09:34:05.740Z,4.12
2018-01-22T09:35:05.660Z,4.15
2018-01-22T09:36:05.578Z,4.23
2018-01-22T09:37:05.496Z,4.25
2018-01-22T09:38:05.416Z,4.36
2018-01-22T09:39:05.335Z,4.32
2018-01-22T09:40:05.254Z,4.40
2018-01-22T09:41:05.172Z,4.41
2018-01-22T09:42:05.091Z,4.50
2018-01-22T09:43:05.012Z,4.55
2018-01-22T09:44:04.930Z,4.64
2018-01-22T09:45:04.847Z,4.61
2018-01-22T09:46:04.766Z,4.76
2018-01-22T09:47:04.686Z,4.73
2018-01-22T09:48:04.604Z,4.84
2018-01-22T09:49:04.575Z,4.87
2018-01-22T09:50:04.443Z,4.84
2018-01-22T09:51:04.362Z,4.92
2018-01-22T09:52:04.280Z,4.91
2018-01-22T09:53:04.200Z,4.95
2018-01-22T09:54:04.119Z,5.03
2018-01-22T09:55:04.039Z,5.05
2018-01-22T09:56:03.960Z,5.10
2018-01-22T09:57:03.877Z,5.11
2018-01-22T09:58:03.795Z,5.14
2018-01-22T09:59:03.715Z,5.21
2018-01-22T10:00:03.634Z,5.23
2018-01-22T10:01:03.553Z,5.31
2018-01-22T10:02:03.472Z,5.24
2018-01-22T10:03:03.392Z,5.21
2018-01-22T10:04:03.311Z,5.28
2018-01-22T10:05:03.231Z,5.26
2018-01-22T10:06:03.150Z,5.29
2018-01-22T10:07:03.069Z,5.28
2018-01-22T10:08:02.989Z,5.32
2018-01-22T10:09:02.958Z,5.32
2018-01-22T10:10:02.828Z,5.31
2018-01-22T10:11:02.748Z,5.38
2018-01-22T10:12:02.669Z,5.41
2018-01-22T10:13:02.587Z,5.41
2018-01-22T10:14:02.506Z,5.32
2018-01-22T10:15:02.472Z,5.45
2018-01-22T10:16:02.344Z,5.44
2018-01-22T10:17:02.267Z,5.47
2018-01-22T10:18:02.184Z,5.47
2018-01-22T10:19:02.104Z,5.54
2018-01-22T10:20:02.023Z,5.53
2018-01-22T10:21:01.942Z,5.49
2018-01-22T10:22:01.863Z,5.53
2018-01-22T10:23:01.782Z,5.52
2018-01-22T10:24:01.704Z,5.62
2018-01-22T10:25:01.622Z,5.59
2018-01-22T10:26:01.542Z,5.75
2018-01-22T10:27:01.462Z,5.74
2018-01-22T10:28:01.381Z,5.74
2018-01-22T10:29:01.301Z,5.71
2018-01-22T10:30:01.221Z,5.63
2018-01-22T10:31:01.142Z,5.65
2018-01-22T10:32:01.061Z,5.65
2018-01-22T10:33:00.981Z,5.77
2018-01-22T10:34:00.900Z,5.72
2018-01-22T10:35:00.822Z,5.74
2018-01-22T10:36:00.741Z,5.71
2018-01-22T10:37:00.662Z,5.72
2018-01-22T10:38:00.582Z,5.68
2018-01-22T10:39:00.502Z,5.72
2018-01-22T10:40:00.421Z,5.72
2018-01-22T10:41:00.342Z,5.78
2018-01-22T10:42:00.262Z,5.80
2018-01-22T10:43:00.182Z,5.89
2018-01-22T10:44:00.101Z,5.85
2018-01-22T10:45:00.029Z,5.85
2018-01-22T10:45:59.942Z,5.88
2018-01-22T10:46:59.863Z,6.04
2018-01-22T10:47:59.781Z,5.95
2018-01-22T10:48:59.703Z,6.07
2018-01-22T10:49:59.623Z,6.08
2018-01-22T10:50:59.544Z,6.14
2018-01-22T10:51:59.466Z,6.07
2018-01-22T10:52:59.383Z,6.11
2018-01-22T10:53:59.304Z,6.17
2018-01-22T10:54:59.225Z,6.18
2018-01-22T10:55:59.145Z,6.18
2018-01-22T10:56:59.065Z,6.15
2018-01-22T10:57:58.986Z,6.26
2018-01-22T10:58:58.906Z,6.29
2018-01-22T10:59:58.826Z,6.26
2018-01-22T11:00:58.750Z,6.32
2018-01-22T11:01:58.667Z,6.36
2018-01-22T11:02:58.588Z,6.34
2018-01-22T11:03:58.509Z,6.41
2018-01-22T11:04:58.430Z,6.44
2018-01-22T11:05:58.354Z,6.44
2018-01-22T11:06:58.272Z,6.42
2018-01-22T11:07:58.192Z,6.50
2018-01-22T11:08:58.112Z,6.50
2018-01-22T11:09:58.033Z,6.51
2018-01-22T11:10:58.009Z,6.47
2018-01-22T11:11:57.875Z,6.51
2018-01-22T11:12:57.795Z,6.54
2018-01-22T11:13:57.716Z,6.50
2018-01-22T11:14:57.637Z,6.66
2018-01-22T11:15:57.657Z,6.65
2018-01-22T11:16:57.481Z,6.70
2018-01-22T11:17:57.400Z,6.80
2018-01-22T11:18:57.347Z,6.68
2018-01-22T11:19:57.242Z,6.72
2018-01-22T11:20:57.162Z,6.69
2018-01-22T11:21:57.083Z,6.72
2018-01-22T11:22:57.005Z,6.72
2018-01-22T11:23:56.925Z,6.84
2018-01-22T11:24:56.847Z,6.75
2018-01-22T11:25:56.767Z,6.72
2018-01-22T11:26:56.689Z,6.81
2018-01-22T11:27:56.609Z,6.86
2018-01-22T11:28:56.529Z,6.90
2018-01-22T11:29:56.451Z,6.87
2018-01-22T11:30:56.373Z,6.80
2018-01-22T11:31:56.292Z,6.91
2018-01-22T11:32:56.213Z,6.94
2018-01-22T11:33:56.135Z,6.87
2018-01-22T11:34:56.057Z,6.93
2018-01-22T11:35:55.977Z,6.93
2018-01-22T11:36:55.900Z,6.99
2018-01-22T11:37:55.819Z,7.01
2018-01-22T11:38:55.741Z,6.96
2018-01-22T11:39:55.662Z,7.06
2018-01-22T11:40:55.583Z,7.01
2018-01-22T11:41:55.504Z,7.08
2018-01-22T11:42:55.432Z,7.09
2018-01-22T11:43:55.347Z,7.12
2018-01-22T11:44:55.269Z,7.17
2018-01-22T11:45:55.190Z,7.17
2018-01-22T11:46:55.113Z,7.17
2018-01-22T11:47:55.034Z,7.16
2018-01-22T11:48:54.959Z,7.16
2018-01-22T11:49:54.877Z,7.19
2018-01-22T11:50:54.799Z,7.26
2018-01-22T11:51:54.720Z,7.11
2018-01-22T11:52:54.641Z,7.30
2018-01-22T11:53:54.563Z,7.12
2018-01-22T11:54:54.485Z,7.26
2018-01-22T11:55:54.406Z,7.30
2018-01-22T11:56:54.328Z,7.35
2018-01-22T11:57:54.256Z,7.38
2018-01-22T11:58:54.172Z,7.38
2018-01-22T11:59:54.093Z,7.39
2018-01-22T12:00:54.017Z,7.31
2018-01-22T12:01:53.936Z,7.41
2018-01-22T12:02:53.859Z,7.41
2018-01-22T12:03:53.780Z,7.44
2018-01-22T12:04:53.702Z,7.47
2018-01-22T12:05:53.624Z,7.48
2018-01-22T12:06:53.545Z,7.53
2018-01-22T12:07:53.466Z,7.55
2018-01-22T12:08:53.388Z,7.55
2018-01-22T12:09:53.310Z,7.55
2018-01-22T12:10:53.232Z,7.47
2018-01-22T12:11:53.154Z,7.38
2018-01-22T12:12:53.075Z,7.44
2018-01-22T12:13:52.997Z,7.44
2018-01-22T12:14:52.927Z,7.48
2018-01-22T12:15:52.842Z,7.49
2018-01-22T12:16:52.763Z,7.48
2018-01-22T12:17:52.698Z,7.53
2018-01-22T12:18:52.607Z,7.55
2018-01-22T12:19:52.527Z,7.49
2018-01-22T12:20:52.450Z,7.56
2018-01-22T12:21:52.371Z,7.56
2018-01-22T12:22:52.294Z,7.56
2018-01-22T12:23:52.215Z,7.53
2018-01-22T12:24:52.137Z,7.56
2018-01-22T12:25:52.058Z,7.60
2018-01-22T12:26:51.981Z,7.49
2018-01-22T12:27:51.902Z,7.55
2018-01-22T12:28:51.823Z,7.59
2018-01-22T12:29:51.747Z,7.53
2018-01-22T12:30:51.668Z,7.67
2018-01-22T12:31:51.588Z,7.68
2018-01-22T12:32:51.511Z,7.68
2018-01-22T12:33:51.434Z,7.60
2018-01-22T12:34:51.355Z,7.76
2018-01-22T12:35:51.276Z,7.70
2018-01-22T12:36:51.198Z,7.75
2018-01-22T12:37:51.120Z,7.76
2018-01-22T12:38:51.042Z,7.75
2018-01-22T12:39:50.963Z,7.86
2018-01-22T12:40:50.886Z,7.83
2018-01-22T12:41:50.808Z,7.88
2018-01-22T12:42:50.730Z,7.83
2018-01-22T12:43:50.802Z,7.85
2018-01-22T12:44:50.573Z,7.73
2018-01-22T12:45:50.496Z,7.86
2018-01-22T12:46:50.419Z,7.88
2018-01-22T12:47:50.340Z,7.82
2018-01-22T12:48:50.262Z,7.86
2018-01-22T12:49:50.184Z,7.96
2018-01-22T12:50:50.107Z,7.94
2018-01-22T12:51:50.028Z,7.94
2018-01-22T12:52:49.950Z,7.96
2018-01-22T12:53:49.873Z,7.97
2018-01-22T12:54:49.797Z,8.04
2018-01-22T12:55:49.717Z,8.00
2018-01-22T12:56:49.641Z,7.93
2018-01-22T12:57:49.562Z,8.04
2018-01-22T12:58:49.486Z,8.14
2018-01-22T12:59:49.407Z,8.06
2018-01-22T13:00:49.329Z,8.06
2018-01-22T13:01:49.255Z,8.01
2018-01-22T13:02:49.174Z,8.04
2018-01-22T13:03:49.096Z,8.04
2018-01-22T13:04:49.019Z,7.99
2018-01-22T13:05:48.942Z,7.99
2018-01-22T13:06:48.865Z,8.00
2018-01-22T13:07:48.786Z,7.88
2018-01-22T13:08:48.710Z,7.94
2018-01-22T13:09:48.632Z,7.96
2018-01-22T13:10:48.556Z,7.96
2018-01-22T13:11:48.477Z,8.00
2018-01-22T13:12:48.400Z,7.96
2018-01-22T13:13:48.323Z,8.06
2018-01-22T13:14:48.246Z,7.93
2018-01-22T13:15:48.168Z,8.01
2018-01-22T13:16:48.091Z,8.04
2018-01-22T13:17:48.013Z,8.06
2018-01-22T13:18:47.936Z,8.17
2018-01-22T13:19:47.858Z,8.22
2018-01-22T13:20:47.781Z,8.22